createdAt,value
2019-02-15T00:02:28.291Z,71.00
2019-02-15T00:04:56.647Z,71.18
2019-02-15T00:07:24.973Z,70.83
2019-02-15T00:09:53.403Z,71.77
2019-02-15T00:12:21.771Z,71.91
2019-02-15T00:14:50.106Z,71.18
2019-02-15T00:17:22.125Z,70.68
2019-02-15T00:19:52.474Z,71.25
2019-02-15T00:22:20.805Z,71.41
2019-02-15T00:24:49.183Z,71.18
2019-02-15T00:27:17.517Z,71.06
2019-02-15T00:29:45.906Z,71.28
2019-02-15T00:32:14.396Z,71.75
2019-02-15T00:34:42.717Z,71.04
2019-02-15T00:37:11.625Z,71.28
2019-02-15T00:39:39.972Z,71.26
2019-02-15T00:42:08.748Z,71.53
2019-02-15T00:44:37.628Z,71.89
2019-02-15T00:47:10.020Z,71.92
2019-02-15T00:49:40.319Z,72.14
2019-02-15T00:52:11.053Z,71.50
2019-02-15T00:54:43.249Z,71.59
2019-02-15T00:57:16.226Z,72.00
2019-02-15T00:59:47.193Z,72.52
2019-02-15T01:02:18.080Z,72.88
2019-02-15T01:04:49.946Z,73.01
2019-02-15T01:07:19.712Z,72.98
2019-02-15T01:09:50.817Z,72.99
2019-02-15T01:12:21.910Z,73.08
2019-02-15T01:14:50.299Z,72.50
2019-02-15T01:17:18.650Z,71.95
2019-02-15T01:19:47.053Z,71.92
2019-02-15T01:22:15.476Z,71.96
2019-02-15T01:24:43.840Z,72.22
2019-02-15T01:27:15.078Z,71.67
2019-02-15T01:29:48.075Z,71.59
2019-02-15T01:32:19.175Z,71.47
2019-02-15T01:34:50.233Z,71.66
2019-02-15T01:37:18.550Z,71.30
2019-02-15T01:39:50.535Z,71.02
2019-02-15T01:42:20.111Z,71.46
2019-02-15T01:44:50.872Z,71.88
2019-02-15T01:47:19.578Z,72.38
2019-02-15T01:49:48.075Z,73.58
2019-02-15T01:52:16.463Z,73.83
2019-02-15T01:54:44.830Z,73.66
2019-02-15T01:57:13.375Z,73.57
2019-02-15T01:59:41.878Z,74.16
2019-02-15T02:02:10.615Z,74.03
2019-02-15T02:04:39.712Z,73.74
2019-02-15T02:07:08.073Z,74.04
2019-02-15T02:09:36.412Z,73.89
2019-02-15T02:12:05.328Z,73.50
2019-02-15T02:14:33.664Z,73.70
2019-02-15T02:17:02.173Z,73.34
2019-02-15T02:19:30.520Z,72.79
2019-02-15T02:21:59.040Z,72.65
2019-02-15T02:24:27.366Z,73.01
2019-02-15T02:26:55.718Z,72.61
2019-02-15T02:29:24.064Z,72.75
2019-02-15T02:31:52.410Z,73.11
2019-02-15T02:34:20.809Z,72.89
2019-02-15T02:36:50.683Z,73.28
2019-02-15T02:39:19.075Z,73.53
2019-02-15T02:41:47.479Z,73.68
2019-02-15T02:44:15.911Z,73.63
2019-02-15T02:46:44.306Z,73.54
2019-02-15T02:49:12.924Z,73.69
2019-02-15T02:51:41.819Z,74.00
2019-02-15T02:54:10.323Z,74.29
2019-02-15T02:56:38.655Z,74.65
2019-02-15T02:59:07.029Z,74.27
2019-02-15T03:01:35.449Z,74.16
2019-02-15T03:04:03.981Z,74.28
2019-02-15T03:06:32.310Z,73.56
2019-02-15T03:09:00.656Z,74.28
2019-02-15T03:11:29.075Z,74.31
2019-02-15T03:13:57.424Z,74.31
2019-02-15T03:16:25.782Z,74.62
2019-02-15T03:18:54.107Z,74.40
2019-02-15T03:21:22.451Z,73.96
2019-02-15T03:23:50.826Z,73.54
2019-02-15T03:26:19.259Z,73.33
2019-02-15T03:28:47.619Z,73.66
2019-02-15T03:31:15.964Z,73.85
2019-02-15T03:33:44.342Z,73.54
2019-02-15T03:36:15.707Z,72.91
2019-02-15T03:38:47.879Z,72.71
2019-02-15T03:41:18.881Z,73.27
2019-02-15T03:43:47.226Z,73.20
2019-02-15T03:46:15.586Z,73.82
2019-02-15T03:48:43.919Z,74.08
2019-02-15T03:51:12.819Z,74.30
2019-02-15T03:53:41.150Z,73.86
2019-02-15T03:56:09.899Z,74.03
2019-02-15T03:58:38.342Z,74.67
2019-02-15T04:01:06.800Z,74.63
2019-02-15T04:03:35.190Z,74.39
2019-02-15T04:06:03.680Z,74.50
2019-02-15T04:08:32.151Z,74.31
2019-02-15T04:11:00.491Z,73.94
2019-02-15T04:13:28.958Z,74.39
2019-02-15T04:15:57.316Z,73.71
2019-02-15T04:18:25.671Z,73.78
2019-02-15T04:20:54.026Z,74.30
2019-02-15T04:23:22.370Z,74.34
2019-02-15T04:25:50.710Z,74.31
2019-02-15T04:28:19.106Z,74.55
2019-02-15T04:30:47.450Z,74.47
2019-02-15T04:33:15.793Z,74.67
2019-02-15T04:35:44.176Z,74.31
2019-02-15T04:38:12.812Z,74.27
2019-02-15T04:40:41.165Z,73.40
2019-02-15T04:43:09.717Z,73.42
2019-02-15T04:45:38.074Z,73.76
2019-02-15T04:48:06.433Z,73.97
2019-02-15T04:50:34.753Z,74.20
2019-02-15T04:53:03.310Z,74.49
2019-02-15T04:55:31.721Z,74.60
2019-02-15T04:58:00.070Z,74.72
2019-02-15T05:00:28.406Z,74.73
2019-02-15T05:02:57.559Z,74.37
2019-02-15T05:05:25.955Z,74.26
2019-02-15T05:07:54.384Z,74.50
2019-02-15T05:10:22.744Z,75.36
2019-02-15T05:12:51.105Z,74.84
2019-02-15T05:15:19.536Z,74.57
2019-02-15T05:17:48.005Z,74.47
2019-02-15T05:20:16.335Z,75.15
2019-02-15T05:22:44.700Z,74.96
2019-02-15T05:25:13.528Z,74.77
2019-02-15T05:27:41.875Z,75.21
2019-02-15T05:30:10.645Z,75.43
2019-02-15T05:32:38.994Z,75.77
2019-02-15T05:35:07.457Z,76.06
2019-02-15T05:40:40.958Z,75.36
2019-02-15T05:43:09.572Z,75.52
2019-02-15T05:45:37.909Z,75.29
2019-02-15T05:48:06.743Z,74.44
2019-02-15T05:50:35.093Z,75.32
2019-02-15T05:53:03.537Z,74.37
2019-02-15T05:55:31.880Z,74.48
2019-02-15T05:58:00.210Z,74.57
2019-02-15T06:00:36.729Z,74.57
2019-02-15T06:02:58.897Z,74.66
2019-02-15T06:05:28.002Z,74.59
2019-02-15T06:07:56.329Z,75.02
2019-02-15T06:10:25.392Z,75.30
2019-02-15T06:12:53.713Z,74.98
2019-02-15T06:15:22.058Z,74.78
2019-02-15T06:17:50.434Z,75.19
2019-02-15T06:20:18.786Z,75.54
2019-02-15T06:22:47.177Z,74.89
2019-02-15T06:25:15.518Z,74.47
2019-02-15T06:27:43.845Z,74.71
2019-02-15T06:30:12.198Z,75.25
2019-02-15T06:32:40.622Z,74.87
2019-02-15T06:35:09.793Z,74.98
2019-02-15T06:37:38.134Z,74.47
2019-02-15T06:40:07.711Z,74.77
2019-02-15T06:42:36.047Z,74.44
2019-02-15T06:45:06.016Z,73.79
2019-02-15T06:47:34.351Z,73.97
2019-02-15T06:50:02.724Z,73.50
2019-02-15T06:52:31.057Z,73.01
2019-02-15T06:54:59.389Z,70.35
2019-02-15T06:57:27.756Z,68.69
2019-02-15T06:59:59.851Z,65.86
2019-02-15T07:02:31.056Z,64.13
2019-02-15T07:05:02.184Z,63.03
2019-02-15T07:07:30.545Z,60.60
2019-02-15T07:09:58.866Z,59.46
2019-02-15T07:12:27.249Z,57.91
2019-02-15T07:14:55.582Z,58.84
2019-02-15T07:17:23.921Z,56.69
2019-02-15T07:19:52.284Z,55.52
2019-02-15T07:22:20.600Z,54.03
2019-02-15T07:24:48.991Z,53.17
2019-02-15T07:27:17.326Z,51.58
2019-02-15T07:29:45.658Z,50.95
2019-02-15T07:32:13.983Z,49.81
2019-02-15T07:34:42.350Z,49.46
2019-02-15T07:37:10.703Z,47.17
2019-02-15T07:39:39.030Z,47.11
2019-02-15T07:42:07.609Z,47.16
2019-02-15T07:44:35.944Z,47.41
2019-02-15T07:47:04.269Z,47.13
2019-02-15T07:49:32.635Z,47.20
2019-02-15T07:52:01.831Z,46.04
2019-02-15T07:54:30.261Z,45.96
2019-02-15T07:56:58.593Z,45.48
2019-02-15T07:59:26.943Z,47.16
2019-02-15T08:02:01.592Z,47.34
2019-02-15T08:04:25.675Z,47.41
2019-02-15T08:06:54.029Z,49.92
2019-02-15T08:09:22.816Z,49.56
2019-02-15T08:11:51.149Z,47.06
2019-02-15T08:14:19.469Z,45.97
2019-02-15T08:16:47.836Z,47.75
2019-02-15T08:19:16.135Z,48.62
2019-02-15T08:21:44.475Z,48.16
2019-02-15T08:24:12.800Z,49.29
2019-02-15T08:26:41.227Z,51.46
2019-02-15T08:29:09.550Z,50.74
2019-02-15T08:31:37.911Z,52.27
2019-02-15T08:34:06.474Z,52.40
2019-02-15T08:36:34.800Z,54.62
2019-02-15T08:39:05.119Z,55.98
2019-02-15T08:41:33.470Z,55.68
2019-02-15T08:44:02.187Z,54.49
2019-02-15T08:46:30.558Z,52.93
2019-02-15T08:48:58.880Z,54.15
2019-02-15T08:51:27.211Z,54.85
2019-02-15T08:53:55.560Z,54.08
2019-02-15T08:56:23.874Z,53.48
2019-02-15T08:58:52.226Z,53.06
2019-02-15T09:01:20.568Z,55.79
2019-02-15T09:03:48.934Z,55.04
2019-02-15T09:06:17.256Z,55.97
2019-02-15T09:08:45.599Z,55.29
2019-02-15T09:11:13.935Z,56.52
2019-02-15T09:13:42.279Z,57.09
2019-02-15T09:16:10.804Z,57.62
2019-02-15T09:18:39.234Z,57.13
2019-02-15T09:21:07.879Z,56.95
2019-02-15T09:23:36.219Z,57.15
2019-02-15T09:26:04.621Z,57.25
2019-02-15T09:28:35.617Z,57.40
2019-02-15T09:31:04.005Z,56.77
2019-02-15T09:33:32.453Z,56.92
2019-02-15T09:36:00.780Z,57.37
2019-02-15T09:38:29.115Z,57.43
2019-02-15T09:40:57.674Z,57.52
2019-02-15T09:43:26.001Z,56.92
2019-02-15T09:45:54.449Z,56.60
2019-02-15T09:48:22.761Z,55.87
2019-02-15T09:50:51.255Z,55.90
2019-02-15T09:53:20.627Z,55.53
2019-02-15T09:55:48.990Z,55.22
2019-02-15T09:58:17.335Z,55.09
2019-02-15T10:00:45.664Z,54.58
2019-02-15T10:03:13.988Z,54.49
2019-02-15T10:05:42.348Z,54.47
2019-02-15T10:08:10.701Z,54.94
2019-02-15T10:10:39.027Z,54.58
2019-02-15T10:13:07.699Z,54.37
2019-02-15T10:15:36.047Z,53.46
2019-02-15T10:18:04.658Z,54.16
2019-02-15T10:20:32.966Z,54.09
2019-02-15T10:23:01.451Z,52.89
2019-02-15T10:25:29.804Z,53.62
2019-02-15T10:27:58.224Z,53.77
2019-02-15T10:30:26.656Z,53.48
2019-02-15T10:32:54.990Z,53.66
2019-02-15T10:35:23.333Z,52.52
2019-02-15T10:37:51.725Z,52.48
2019-02-15T10:40:20.036Z,52.45
2019-02-15T10:42:48.389Z,52.25
2019-02-15T10:45:16.669Z,51.21
2019-02-15T10:47:45.052Z,51.19
2019-02-15T10:50:13.535Z,51.09
2019-02-15T10:52:41.933Z,51.25
2019-02-15T10:55:10.930Z,51.37
2019-02-15T10:57:39.270Z,50.71
2019-02-15T11:00:13.620Z,49.78
2019-02-15T11:02:42.010Z,50.32
2019-02-15T11:05:11.174Z,50.73
2019-02-15T11:07:39.511Z,49.59
2019-02-15T11:10:09.312Z,48.17
2019-02-15T11:12:37.773Z,48.26
2019-02-15T11:15:09.970Z,47.79
2019-02-15T11:17:38.316Z,48.71
2019-02-15T11:20:10.404Z,48.47
2019-02-15T11:22:38.761Z,48.03
2019-02-15T11:25:09.685Z,48.23
2019-02-15T11:27:38.030Z,48.37
2019-02-15T11:30:10.435Z,48.37
2019-02-15T11:32:38.783Z,48.19
2019-02-15T11:35:10.121Z,48.13
2019-02-15T11:37:38.462Z,47.26
2019-02-15T11:40:09.798Z,47.19
2019-02-15T11:42:38.114Z,47.18
2019-02-15T11:45:10.341Z,46.68
2019-02-15T11:47:38.841Z,46.92
2019-02-15T11:50:10.541Z,47.85
2019-02-15T11:52:38.940Z,46.89
2019-02-15T11:55:09.787Z,46.17
2019-02-15T11:57:38.101Z,45.98
2019-02-15T12:00:14.136Z,46.33
2019-02-15T12:02:39.947Z,45.49
2019-02-15T12:05:09.638Z,45.55
2019-02-15T12:07:38.034Z,45.87
2019-02-15T12:10:09.576Z,44.58
2019-02-15T12:12:37.950Z,44.79
2019-02-15T12:15:09.409Z,43.65
2019-02-15T12:17:37.744Z,43.69
2019-02-15T12:20:10.099Z,43.20
2019-02-15T12:22:38.427Z,43.05
2019-02-15T12:25:07.854Z,43.56
2019-02-15T12:27:36.184Z,43.87
2019-02-15T12:30:09.412Z,43.74
2019-02-15T12:32:37.749Z,43.87
2019-02-15T12:35:08.280Z,43.36
2019-02-15T12:37:36.690Z,41.98
2019-02-15T12:40:07.405Z,42.98
2019-02-15T12:42:35.731Z,42.27
2019-02-15T12:45:06.978Z,42.57
2019-02-15T12:47:35.309Z,42.45
2019-02-15T12:50:07.688Z,41.89
2019-02-15T12:52:36.007Z,41.70
2019-02-15T12:55:04.397Z,41.30
2019-02-15T12:57:32.764Z,41.95
2019-02-15T13:00:01.084Z,41.81
2019-02-15T13:02:29.425Z,41.81
2019-02-15T13:04:58.205Z,41.34
2019-02-15T13:07:26.563Z,41.57
2019-02-15T13:09:54.904Z,41.35
2019-02-15T13:12:23.236Z,40.69
2019-02-15T13:14:51.578Z,40.49
2019-02-15T13:17:24.788Z,40.88
2019-02-15T13:19:50.250Z,40.50
2019-02-15T13:22:20.167Z,40.89
2019-02-15T13:24:49.591Z,40.74
2019-02-15T13:27:17.936Z,41.10
2019-02-15T13:29:46.315Z,40.03
2019-02-15T13:32:14.670Z,40.31
2019-02-15T13:34:43.113Z,39.62
2019-02-15T13:37:11.490Z,39.38
2019-02-15T13:39:39.804Z,38.37
2019-02-15T13:42:08.481Z,37.99
2019-02-15T13:44:36.911Z,38.15
2019-02-15T13:47:05.248Z,38.14
2019-02-15T13:49:33.676Z,38.18
2019-02-15T13:52:02.077Z,39.31
2019-02-15T13:54:30.429Z,38.50
2019-02-15T13:56:58.745Z,38.50
2019-02-15T13:59:27.093Z,37.89
2019-02-15T14:01:55.419Z,38.10
2019-02-15T14:04:23.841Z,38.72
2019-02-15T14:06:53.923Z,38.22
2019-02-15T14:09:22.409Z,38.40
2019-02-15T14:11:50.778Z,37.95
2019-02-15T14:14:19.159Z,38.74
2019-02-15T14:16:47.572Z,38.36
2019-02-15T14:19:15.908Z,38.13
2019-02-15T14:21:44.775Z,39.28
2019-02-15T14:24:13.285Z,38.58
2019-02-15T14:26:41.624Z,38.21
2019-02-15T14:29:10.014Z,39.06
2019-02-15T14:31:38.414Z,38.92
2019-02-15T14:34:07.073Z,38.70
2019-02-15T14:36:35.413Z,38.72
2019-02-15T14:39:06.687Z,38.71
2019-02-15T14:41:34.980Z,38.29
2019-02-15T14:44:03.380Z,36.97
2019-02-15T14:46:31.702Z,37.36
2019-02-15T14:49:00.101Z,36.32
2019-02-15T14:51:28.419Z,35.27
2019-02-15T14:53:56.783Z,36.21
2019-02-15T14:56:25.161Z,35.91
2019-02-15T14:58:53.504Z,35.46
2019-02-15T15:01:21.855Z,35.50
2019-02-15T15:03:50.167Z,36.00
2019-02-15T15:06:18.518Z,35.83
2019-02-15T15:08:46.936Z,34.89
2019-02-15T15:11:15.327Z,34.75
2019-02-15T15:13:43.709Z,34.58
2019-02-15T15:16:12.038Z,34.36
2019-02-15T15:18:40.363Z,33.49
2019-02-15T15:21:08.817Z,34.10
2019-02-15T15:23:37.141Z,33.49
2019-02-15T15:26:11.590Z,33.52
2019-02-15T15:28:35.790Z,33.91
2019-02-15T15:31:04.238Z,34.15
2019-02-15T15:33:32.557Z,34.20
2019-02-15T15:36:00.929Z,35.21
2019-02-15T15:38:29.232Z,34.05
2019-02-15T15:40:57.586Z,33.88
2019-02-15T15:43:25.985Z,35.05
2019-02-15T15:45:54.362Z,34.94
2019-02-15T15:48:23.078Z,35.18
2019-02-15T15:50:51.503Z,36.02
2019-02-15T15:53:19.861Z,35.84
2019-02-15T15:55:48.371Z,35.58
2019-02-15T15:58:16.865Z,35.78
2019-02-15T16:00:45.190Z,36.37
2019-02-15T16:03:13.527Z,36.75
2019-02-15T16:05:41.870Z,37.02
2019-02-15T16:08:10.218Z,36.94
2019-02-15T16:10:38.528Z,36.70
2019-02-15T16:13:07.107Z,37.70
2019-02-15T16:15:35.600Z,37.96
2019-02-15T16:18:04.208Z,37.66
2019-02-15T16:20:32.554Z,37.53
2019-02-15T16:23:01.422Z,37.68
2019-02-15T16:25:32.109Z,39.23
2019-02-15T16:28:00.519Z,39.42
2019-02-15T16:30:28.919Z,38.88
2019-02-15T16:32:57.309Z,39.62
2019-02-15T16:35:25.614Z,39.90
2019-02-15T16:37:53.994Z,40.88
2019-02-15T16:40:22.333Z,41.07
2019-02-15T16:42:50.872Z,40.85
2019-02-15T16:45:19.432Z,41.03
2019-02-15T16:47:48.031Z,41.28
2019-02-15T16:50:16.392Z,41.82
2019-02-15T16:52:44.738Z,42.02
2019-02-15T16:55:13.600Z,41.67
2019-02-15T16:57:43.512Z,41.87
2019-02-15T17:00:13.068Z,42.32
2019-02-15T17:02:41.548Z,42.87
2019-02-15T17:05:10.311Z,42.35
2019-02-15T17:07:38.665Z,42.91
2019-02-15T17:10:09.442Z,42.72
2019-02-15T17:12:38.687Z,42.94
2019-02-15T17:15:10.264Z,42.76
2019-02-15T17:17:38.612Z,42.80
2019-02-15T17:20:09.379Z,42.17
2019-02-15T17:22:37.722Z,42.93
2019-02-15T17:25:08.409Z,43.23
2019-02-15T17:27:36.733Z,43.55
2019-02-15T17:30:08.025Z,44.69
2019-02-15T17:32:36.358Z,46.77
2019-02-15T17:35:07.183Z,46.97
2019-02-15T17:37:35.523Z,47.01
2019-02-15T17:40:07.914Z,46.78
2019-02-15T17:42:36.230Z,47.89
2019-02-15T17:45:06.632Z,47.59
2019-02-15T17:47:34.969Z,47.80
2019-02-15T17:50:03.871Z,47.81
2019-02-15T17:52:32.206Z,48.54
2019-02-15T17:55:00.564Z,49.09
2019-02-15T17:57:28.950Z,49.39
2019-02-15T17:59:57.284Z,50.35
2019-02-15T18:02:25.630Z,48.95
2019-02-15T18:04:53.972Z,51.02
2019-02-15T18:07:22.331Z,50.20
2019-02-15T18:09:50.683Z,48.45
2019-02-15T18:12:19.027Z,47.72
2019-02-15T18:14:47.379Z,47.14
2019-02-15T18:17:16.370Z,46.48
2019-02-15T18:19:47.273Z,45.87
2019-02-15T18:22:15.085Z,46.75
2019-02-15T18:24:43.429Z,46.35
2019-02-15T18:27:11.957Z,46.85
2019-02-15T18:29:40.277Z,46.87
2019-02-15T18:32:08.881Z,47.42
2019-02-15T18:34:37.223Z,48.10
2019-02-15T18:37:05.669Z,48.38
2019-02-15T18:39:34.003Z,49.03
2019-02-15T18:42:02.411Z,49.20
2019-02-15T18:44:30.809Z,49.53
2019-02-15T18:46:59.175Z,50.04
2019-02-15T18:49:27.528Z,49.90
2019-02-15T18:51:56.081Z,50.12
2019-02-15T18:54:24.435Z,50.33
2019-02-15T18:56:52.821Z,50.19
2019-02-15T18:59:21.385Z,51.18
2019-02-15T19:01:49.818Z,51.02
2019-02-15T19:04:18.125Z,51.58
2019-02-15T19:06:46.474Z,51.62
2019-02-15T19:09:14.805Z,51.55
2019-02-15T19:11:43.233Z,51.73
2019-02-15T19:14:12.041Z,51.91
2019-02-15T19:16:40.332Z,51.61
2019-02-15T19:19:08.691Z,52.28
2019-02-15T19:21:37.023Z,52.39
2019-02-15T19:24:05.397Z,52.13
2019-02-15T19:26:33.700Z,52.52
2019-02-15T19:29:02.043Z,52.18
2019-02-15T19:31:30.381Z,52.81
2019-02-15T19:33:58.814Z,52.27
2019-02-15T19:36:27.144Z,52.31
2019-02-15T19:38:55.489Z,52.75
2019-02-15T19:41:24.045Z,53.14
2019-02-15T19:43:52.614Z,53.55
2019-02-15T19:46:24.133Z,54.07
2019-02-15T19:48:54.702Z,53.76
2019-02-15T19:51:24.259Z,53.31
2019-02-15T19:53:52.629Z,54.15
2019-02-15T19:56:21.091Z,53.88
2019-02-15T19:58:49.535Z,53.33
2019-02-15T20:01:17.964Z,54.90
2019-02-15T20:03:46.301Z,54.54
2019-02-15T20:06:15.011Z,54.26
2019-02-15T20:08:43.904Z,54.98
2019-02-15T20:11:12.441Z,54.34
2019-02-15T20:13:40.827Z,55.36
2019-02-15T20:16:09.936Z,56.13
2019-02-15T20:18:38.961Z,56.17
2019-02-15T20:21:09.671Z,54.56
2019-02-15T20:23:40.047Z,55.32
2019-02-15T20:26:08.390Z,55.49
2019-02-15T20:28:37.111Z,56.00
2019-02-15T20:31:05.715Z,55.18
2019-02-15T20:33:34.634Z,55.99
2019-02-15T20:36:05.939Z,56.99
2019-02-15T20:38:35.363Z,56.23
2019-02-15T20:41:04.154Z,55.92
2019-02-15T20:43:33.764Z,55.52
2019-02-15T20:46:02.146Z,55.75
2019-02-15T20:48:30.558Z,55.51
2019-02-15T20:50:59.070Z,55.86
2019-02-15T20:53:27.773Z,55.33
2019-02-15T20:55:56.121Z,55.75
2019-02-15T20:58:24.580Z,55.39
2019-02-15T21:00:53.079Z,55.79
2019-02-15T21:03:21.390Z,55.25
2019-02-15T21:05:50.064Z,56.05
2019-02-15T21:08:18.505Z,55.39
2019-02-15T21:10:54.564Z,55.75
2019-02-15T21:13:20.413Z,55.03
2019-02-15T21:15:47.632Z,56.00
2019-02-15T21:18:15.972Z,55.86
2019-02-15T21:20:44.490Z,55.60
2019-02-15T21:23:13.165Z,55.90
2019-02-15T21:25:41.517Z,55.53
2019-02-15T21:28:10.651Z,55.46
2019-02-15T21:30:39.024Z,56.28
2019-02-15T21:33:07.381Z,56.13
2019-02-15T21:35:35.683Z,57.37
2019-02-15T21:38:04.106Z,55.83
2019-02-15T21:40:32.432Z,56.66
2019-02-15T21:43:00.771Z,56.56
2019-02-15T21:45:29.113Z,56.71
2019-02-15T21:47:57.446Z,56.78
2019-02-15T21:50:25.822Z,56.82
2019-02-15T21:52:54.163Z,57.04
2019-02-15T21:55:22.494Z,56.97
2019-02-15T21:57:50.880Z,57.28
2019-02-15T22:00:20.954Z,57.83
2019-02-15T22:02:49.387Z,57.79
2019-02-15T22:05:18.157Z,57.38
2019-02-15T22:07:46.549Z,58.47
2019-02-15T22:10:15.130Z,58.40
2019-02-15T22:12:43.497Z,58.80
2019-02-15T22:15:13.924Z,58.45
2019-02-15T22:17:42.348Z,59.23
2019-02-15T22:20:13.066Z,59.03
2019-02-15T22:22:41.364Z,58.67
2019-02-15T22:25:10.179Z,59.04
2019-02-15T22:27:38.483Z,59.38
2019-02-15T22:30:12.994Z,60.02
2019-02-15T22:32:42.584Z,60.17
2019-02-15T22:35:11.896Z,59.66
2019-02-15T22:37:40.351Z,59.86
2019-02-15T22:40:17.152Z,60.46
2019-02-15T22:42:45.505Z,59.98
2019-02-15T22:45:14.293Z,60.29
2019-02-15T22:47:42.668Z,60.42
2019-02-15T22:50:11.659Z,60.82
2019-02-15T22:52:39.990Z,60.93
2019-02-15T22:55:08.522Z,61.18
2019-02-15T22:57:36.837Z,60.62
2019-02-15T23:00:12.943Z,61.07
2019-02-15T23:02:40.041Z,61.40
2019-02-15T23:05:09.995Z,61.48
2019-02-15T23:07:38.336Z,61.80
2019-02-15T23:10:08.277Z,61.82
2019-02-15T23:12:36.660Z,61.53
2019-02-15T23:15:05.922Z,61.90
2019-02-15T23:17:34.279Z,61.57
2019-02-15T23:20:02.588Z,61.39
2019-02-15T23:22:30.946Z,61.15
2019-02-15T23:24:59.277Z,60.92
2019-02-15T23:27:27.705Z,61.23
2019-02-15T23:29:56.025Z,61.33
2019-02-15T23:32:24.380Z,61.21
2019-02-15T23:34:52.689Z,62.02
2019-02-15T23:37:21.109Z,61.71
2019-02-15T23:39:49.426Z,62.39
2019-02-15T23:42:17.755Z,62.57
2019-02-15T23:44:46.083Z,62.04
2019-02-15T23:47:14.427Z,61.96
2019-02-15T23:49:42.772Z,62.00
2019-02-15T23:52:11.368Z,63.28
2019-02-15T23:54:39.710Z,63.05
2019-02-15T23:57:08.156Z,62.75
2019-02-15T23:59:36.486Z,63.18
